sensor_id;sensor_type;location;lat;lon;timestamp;temperature;humidity
32753;DHT22;19121;52.428;10.816;2022-07-29T00:00:08;24.70;38.70
32753;DHT22;19121;52.428;10.816;2022-07-29T00:02:34;24.70;38.70
32753;DHT22;19121;52.428;10.816;2022-07-29T00:05:00;24.60;38.70
32753;DHT22;19121;52.428;10.816;2022-07-29T00:07:26;24.60;38.70
32753;DHT22;19121;52.428;10.816;2022-07-29T00:09:51;24.60;38.70
32753;DHT22;19121;52.428;10.816;2022-07-29T00:12:17;24.60;38.70
32753;DHT22;19121;52.428;10.816;2022-07-29T00:14:42;24.60;38.70
32753;DHT22;19121;52.428;10.816;2022-07-29T00:17:08;24.60;38.70
32753;DHT22;19121;52.428;10.816;2022-07-29T00:19:33;24.60;38.80
32753;DHT22;19121;52.428;10.816;2022-07-29T00:21:59;24.60;38.80
32753;DHT22;19121;52.428;10.816;2022-07-29T00:24:25;24.60;38.80
32753;DHT22;19121;52.428;10.816;2022-07-29T00:26:50;24.60;38.80
32753;DHT22;19121;52.428;10.816;2022-07-29T00:29:16;24.60;38.80
32753;DHT22;19121;52.428;10.816;2022-07-29T00:31:41;24.60;38.80
32753;DHT22;19121;52.428;10.816;2022-07-29T00:34:07;24.50;38.80
32753;DHT22;19121;52.428;10.816;2022-07-29T00:36:52;24.60;38.90
32753;DHT22;19121;52.428;10.816;2022-07-29T00:39:18;24.50;38.80
32753;DHT22;19121;52.428;10.816;2022-07-29T00:41:43;24.60;38.90
32753;DHT22;19121;52.428;10.816;2022-07-29T00:44:08;24.50;38.90
32753;DHT22;19121;52.428;10.816;2022-07-29T00:46:34;24.50;38.90
32753;DHT22;19121;52.428;10.816;2022-07-29T00:48:59;24.50;38.80
32753;DHT22;19121;52.428;10.816;2022-07-29T00:51:26;24.50;38.90
32753;DHT22;19121;52.428;10.816;2022-07-29T00:53:52;24.50;38.90
32753;DHT22;19121;52.428;10.816;2022-07-29T00:56:18;24.50;38.90
32753;DHT22;19121;52.428;10.816;2022-07-29T00:58:46;24.50;38.80
32753;DHT22;19121;52.428;10.816;2022-07-29T01:01:11;24.50;38.90
32753;DHT22;19121;52.428;10.816;2022-07-29T01:03:37;24.50;39.50
32753;DHT22;19121;52.428;10.816;2022-07-29T01:06:03;24.50;38.90
32753;DHT22;19121;52.428;10.816;2022-07-29T01:08:31;24.50;38.90
32753;DHT22;19121;52.428;10.816;2022-07-29T01:10:57;24.50;38.90
32753;DHT22;19121;52.428;10.816;2022-07-29T01:13:23;24.50;38.90
32753;DHT22;19121;52.428;10.816;2022-07-29T01:15:56;24.40;38.90
32753;DHT22;19121;52.428;10.816;2022-07-29T01:18:31;24.50;38.90
32753;DHT22;19121;52.428;10.816;2022-07-29T01:23:48;24.40;38.90
32753;DHT22;19121;52.428;10.816;2022-07-29T01:26:31;24.40;38.90
32753;DHT22;19121;52.428;10.816;2022-07-29T01:29:41;24.40;38.90
32753;DHT22;19121;52.428;10.816;2022-07-29T01:32:11;24.40;38.90
32753;DHT22;19121;52.428;10.816;2022-07-29T01:37:31;24.40;38.90
32753;DHT22;19121;52.428;10.816;2022-07-29T01:39:59;24.40;39.00
32753;DHT22;19121;52.428;10.816;2022-07-29T01:42:38;24.40;39.00
32753;DHT22;19121;52.428;10.816;2022-07-29T01:45:31;24.40;39.00
32753;DHT22;19121;52.428;10.816;2022-07-29T01:48:06;24.40;39.00
32753;DHT22;19121;52.428;10.816;2022-07-29T01:50:40;24.40;39.00
32753;DHT22;19121;52.428;10.816;2022-07-29T01:53:09;24.40;39.00
32753;DHT22;19121;52.428;10.816;2022-07-29T01:55:39;24.40;39.00
32753;DHT22;19121;52.428;10.816;2022-07-29T01:58:06;24.40;39.00
32753;DHT22;19121;52.428;10.816;2022-07-29T02:00:34;24.40;39.10
32753;DHT22;19121;52.428;10.816;2022-07-29T02:03:05;24.40;39.10
32753;DHT22;19121;52.428;10.816;2022-07-29T02:05:33;24.30;39.10
32753;DHT22;19121;52.428;10.816;2022-07-29T02:08:00;24.30;39.10
32753;DHT22;19121;52.428;10.816;2022-07-29T02:10:29;24.30;39.10
32753;DHT22;19121;52.428;10.816;2022-07-29T02:12:57;24.30;39.10
32753;DHT22;19121;52.428;10.816;2022-07-29T02:15:24;24.30;39.10
32753;DHT22;19121;52.428;10.816;2022-07-29T02:17:59;24.30;39.20
32753;DHT22;19121;52.428;10.816;2022-07-29T02:20:28;24.30;39.20
32753;DHT22;19121;52.428;10.816;2022-07-29T02:22:55;24.30;39.20
32753;DHT22;19121;52.428;10.816;2022-07-29T02:25:23;24.30;39.20
32753;DHT22;19121;52.428;10.816;2022-07-29T02:27:50;24.30;39.20
32753;DHT22;19121;52.428;10.816;2022-07-29T02:30:17;24.30;39.20
32753;DHT22;19121;52.428;10.816;2022-07-29T02:32:43;24.30;39.20
32753;DHT22;19121;52.428;10.816;2022-07-29T02:35:13;24.30;39.20
32753;DHT22;19121;52.428;10.816;2022-07-29T02:37:40;24.30;39.20
32753;DHT22;19121;52.428;10.816;2022-07-29T02:40:09;24.30;39.20
32753;DHT22;19121;52.428;10.816;2022-07-29T02:42:36;24.30;39.20
32753;DHT22;19121;52.428;10.816;2022-07-29T02:45:03;24.30;39.20
32753;DHT22;19121;52.428;10.816;2022-07-29T02:47:46;24.30;39.20
32753;DHT22;19121;52.428;10.816;2022-07-29T02:50:20;24.30;39.20
32753;DHT22;19121;52.428;10.816;2022-07-29T02:53:06;24.30;39.20
32753;DHT22;19121;52.428;10.816;2022-07-29T02:55:43;24.30;39.30
32753;DHT22;19121;52.428;10.816;2022-07-29T02:58:32;24.30;39.20
32753;DHT22;19121;52.428;10.816;2022-07-29T03:01:02;24.30;39.20
32753;DHT22;19121;52.428;10.816;2022-07-29T03:03:32;24.30;39.30
32753;DHT22;19121;52.428;10.816;2022-07-29T03:06:00;24.30;39.30
32753;DHT22;19121;52.428;10.816;2022-07-29T03:08:27;24.30;39.30
32753;DHT22;19121;52.428;10.816;2022-07-29T03:10:53;24.30;39.30
32753;DHT22;19121;52.428;10.816;2022-07-29T03:13:19;24.20;39.30
32753;DHT22;19121;52.428;10.816;2022-07-29T03:15:45;24.20;39.20
32753;DHT22;19121;52.428;10.816;2022-07-29T03:18:12;24.30;39.30
32753;DHT22;19121;52.428;10.816;2022-07-29T03:20:39;24.30;39.30
32753;DHT22;19121;52.428;10.816;2022-07-29T03:23:05;24.20;39.30
32753;DHT22;19121;52.428;10.816;2022-07-29T03:25:31;24.20;39.30
32753;DHT22;19121;52.428;10.816;2022-07-29T03:27:56;24.20;39.30
32753;DHT22;19121;52.428;10.816;2022-07-29T03:30:22;24.20;39.30
32753;DHT22;19121;52.428;10.816;2022-07-29T03:32:49;24.30;39.40
32753;DHT22;19121;52.428;10.816;2022-07-29T03:35:15;24.20;39.40
32753;DHT22;19121;52.428;10.816;2022-07-29T03:37:42;24.20;39.40
32753;DHT22;19121;52.428;10.816;2022-07-29T03:40:09;24.20;39.40
32753;DHT22;19121;52.428;10.816;2022-07-29T03:42:38;24.20;39.40
32753;DHT22;19121;52.428;10.816;2022-07-29T03:45:10;24.20;39.40
32753;DHT22;19121;52.428;10.816;2022-07-29T03:47:41;24.20;39.40
32753;DHT22;19121;52.428;10.816;2022-07-29T03:50:11;24.20;39.40
32753;DHT22;19121;52.428;10.816;2022-07-29T03:52:37;24.20;39.40
32753;DHT22;19121;52.428;10.816;2022-07-29T03:55:03;24.20;39.50
32753;DHT22;19121;52.428;10.816;2022-07-29T03:57:30;24.20;39.40
32753;DHT22;19121;52.428;10.816;2022-07-29T03:59:56;24.20;39.50
32753;DHT22;19121;52.428;10.816;2022-07-29T04:02:23;24.20;39.50
32753;DHT22;19121;52.428;10.816;2022-07-29T04:04:49;24.20;39.50
32753;DHT22;19121;52.428;10.816;2022-07-29T04:07:15;24.20;39.50
32753;DHT22;19121;52.428;10.816;2022-07-29T04:09:41;24.20;39.50
32753;DHT22;19121;52.428;10.816;2022-07-29T04:12:07;24.20;39.50
32753;DHT22;19121;52.428;10.816;2022-07-29T04:14:35;24.20;39.60
32753;DHT22;19121;52.428;10.816;2022-07-29T04:17:02;24.20;39.50
32753;DHT22;19121;52.428;10.816;2022-07-29T04:19:28;24.20;39.60
32753;DHT22;19121;52.428;10.816;2022-07-29T04:21:53;24.20;39.60
32753;DHT22;19121;52.428;10.816;2022-07-29T04:24:19;24.20;39.60
32753;DHT22;19121;52.428;10.816;2022-07-29T04:26:47;24.20;39.70
32753;DHT22;19121;52.428;10.816;2022-07-29T04:29:13;24.20;39.60
32753;DHT22;19121;52.428;10.816;2022-07-29T04:31:40;24.20;39.60
32753;DHT22;19121;52.428;10.816;2022-07-29T04:34:05;24.20;39.60
32753;DHT22;19121;52.428;10.816;2022-07-29T04:36:31;24.20;39.70
32753;DHT22;19121;52.428;10.816;2022-07-29T04:38:56;24.20;39.70
32753;DHT22;19121;52.428;10.816;2022-07-29T04:41:22;24.20;39.70
32753;DHT22;19121;52.428;10.816;2022-07-29T04:43:48;24.20;39.70
32753;DHT22;19121;52.428;10.816;2022-07-29T04:46:13;24.10;39.70
32753;DHT22;19121;52.428;10.816;2022-07-29T04:48:39;24.20;39.70
32753;DHT22;19121;52.428;10.816;2022-07-29T04:51:04;24.20;39.80
32753;DHT22;19121;52.428;10.816;2022-07-29T04:53:30;24.10;39.70
32753;DHT22;19121;52.428;10.816;2022-07-29T04:55:55;24.10;39.70
32753;DHT22;19121;52.428;10.816;2022-07-29T04:58:21;24.10;39.70
32753;DHT22;19121;52.428;10.816;2022-07-29T05:00:49;24.10;39.80
32753;DHT22;19121;52.428;10.816;2022-07-29T05:03:14;24.10;39.80
32753;DHT22;19121;52.428;10.816;2022-07-29T05:05:40;24.10;39.80
32753;DHT22;19121;52.428;10.816;2022-07-29T05:08:06;24.20;39.90
32753;DHT22;19121;52.428;10.816;2022-07-29T05:10:31;24.10;39.80
32753;DHT22;19121;52.428;10.816;2022-07-29T05:12:57;24.10;39.90
32753;DHT22;19121;52.428;10.816;2022-07-29T05:15:23;24.10;39.90
32753;DHT22;19121;52.428;10.816;2022-07-29T05:17:48;24.10;39.90
32753;DHT22;19121;52.428;10.816;2022-07-29T05:20:14;24.10;39.90
32753;DHT22;19121;52.428;10.816;2022-07-29T05:22:39;24.10;39.90
32753;DHT22;19121;52.428;10.816;2022-07-29T05:25:05;24.10;39.90
32753;DHT22;19121;52.428;10.816;2022-07-29T05:27:31;24.10;39.90
32753;DHT22;19121;52.428;10.816;2022-07-29T05:29:56;24.10;40.00
32753;DHT22;19121;52.428;10.816;2022-07-29T05:32:22;24.10;40.00
32753;DHT22;19121;52.428;10.816;2022-07-29T05:34:47;24.10;40.00
32753;DHT22;19121;52.428;10.816;2022-07-29T05:37:13;24.10;40.00
32753;DHT22;19121;52.428;10.816;2022-07-29T05:39:39;24.10;40.00
32753;DHT22;19121;52.428;10.816;2022-07-29T05:42:09;24.10;40.00
32753;DHT22;19121;52.428;10.816;2022-07-29T05:44:38;24.10;40.00
32753;DHT22;19121;52.428;10.816;2022-07-29T05:47:04;24.10;40.00
32753;DHT22;19121;52.428;10.816;2022-07-29T05:49:30;24.10;40.10
32753;DHT22;19121;52.428;10.816;2022-07-29T05:51:55;24.10;40.00
32753;DHT22;19121;52.428;10.816;2022-07-29T05:54:21;24.10;40.10
32753;DHT22;19121;52.428;10.816;2022-07-29T05:56:46;24.10;40.00
32753;DHT22;19121;52.428;10.816;2022-07-29T05:59:12;24.00;40.10
32753;DHT22;19121;52.428;10.816;2022-07-29T06:01:37;24.10;40.00
32753;DHT22;19121;52.428;10.816;2022-07-29T06:04:05;24.00;39.90
32753;DHT22;19121;52.428;10.816;2022-07-29T06:06:31;24.00;39.80
32753;DHT22;19121;52.428;10.816;2022-07-29T06:08:56;24.00;40.10
32753;DHT22;19121;52.428;10.816;2022-07-29T06:11:21;24.00;40.10
32753;DHT22;19121;52.428;10.816;2022-07-29T06:13:47;24.00;40.60
32753;DHT22;19121;52.428;10.816;2022-07-29T06:16:12;23.90;40.40
32753;DHT22;19121;52.428;10.816;2022-07-29T06:18:38;23.90;40.30
32753;DHT22;19121;52.428;10.816;2022-07-29T06:21:08;23.90;40.40
32753;DHT22;19121;52.428;10.816;2022-07-29T06:23:38;23.90;40.50
32753;DHT22;19121;52.428;10.816;2022-07-29T06:26:05;23.90;40.50
32753;DHT22;19121;52.428;10.816;2022-07-29T06:28:30;23.90;40.50
32753;DHT22;19121;52.428;10.816;2022-07-29T06:30:56;23.90;40.50
32753;DHT22;19121;52.428;10.816;2022-07-29T06:33:21;23.90;40.50
32753;DHT22;19121;52.428;10.816;2022-07-29T06:35:47;23.90;40.50
32753;DHT22;19121;52.428;10.816;2022-07-29T06:38:13;23.90;40.80
32753;DHT22;19121;52.428;10.816;2022-07-29T06:40:43;23.80;41.70
32753;DHT22;19121;52.428;10.816;2022-07-29T06:43:39;23.80;41.80
32753;DHT22;19121;52.428;10.816;2022-07-29T06:46:13;23.80;41.70
32753;DHT22;19121;52.428;10.816;2022-07-29T06:48:39;23.80;42.00
32753;DHT22;19121;52.428;10.816;2022-07-29T06:51:06;23.70;42.60
32753;DHT22;19121;52.428;10.816;2022-07-29T06:53:32;23.70;42.60
32753;DHT22;19121;52.428;10.816;2022-07-29T06:55:59;23.70;42.50
32753;DHT22;19121;52.428;10.816;2022-07-29T06:58:26;23.70;42.30
32753;DHT22;19121;52.428;10.816;2022-07-29T07:00:51;23.80;42.40
32753;DHT22;19121;52.428;10.816;2022-07-29T07:03:17;23.80;42.20
32753;DHT22;19121;52.428;10.816;2022-07-29T07:05:44;23.80;42.00
32753;DHT22;19121;52.428;10.816;2022-07-29T07:08:10;23.80;42.00
32753;DHT22;19121;52.428;10.816;2022-07-29T07:10:35;23.80;41.90
32753;DHT22;19121;52.428;10.816;2022-07-29T07:13:01;23.90;41.90
32753;DHT22;19121;52.428;10.816;2022-07-29T07:15:27;23.90;41.90
32753;DHT22;19121;52.428;10.816;2022-07-29T07:17:53;23.90;41.80
32753;DHT22;19121;52.428;10.816;2022-07-29T07:20:18;23.90;41.80
32753;DHT22;19121;52.428;10.816;2022-07-29T07:22:44;23.90;41.90
32753;DHT22;19121;52.428;10.816;2022-07-29T07:25:10;23.90;41.90
32753;DHT22;19121;52.428;10.816;2022-07-29T07:27:36;24.00;42.00
32753;DHT22;19121;52.428;10.816;2022-07-29T07:30:03;24.00;42.70
32753;DHT22;19121;52.428;10.816;2022-07-29T07:32:31;24.00;42.10
32753;DHT22;19121;52.428;10.816;2022-07-29T07:34:56;24.00;42.20
32753;DHT22;19121;52.428;10.816;2022-07-29T07:37:22;24.00;42.30
32753;DHT22;19121;52.428;10.816;2022-07-29T07:39:50;24.10;42.30
32753;DHT22;19121;52.428;10.816;2022-07-29T07:42:15;24.10;42.40
32753;DHT22;19121;52.428;10.816;2022-07-29T07:44:40;24.10;42.40
32753;DHT22;19121;52.428;10.816;2022-07-29T07:47:06;24.10;42.30
32753;DHT22;19121;52.428;10.816;2022-07-29T07:49:32;24.10;42.40
32753;DHT22;19121;52.428;10.816;2022-07-29T07:51:57;24.10;42.40
32753;DHT22;19121;52.428;10.816;2022-07-29T07:54:22;24.10;42.40
32753;DHT22;19121;52.428;10.816;2022-07-29T07:56:48;24.20;42.50
32753;DHT22;19121;52.428;10.816;2022-07-29T07:59:15;24.20;42.50
32753;DHT22;19121;52.428;10.816;2022-07-29T08:01:41;24.20;42.50
32753;DHT22;19121;52.428;10.816;2022-07-29T08:04:06;24.30;42.50
32753;DHT22;19121;52.428;10.816;2022-07-29T08:06:33;24.20;42.40
32753;DHT22;19121;52.428;10.816;2022-07-29T08:09:00;24.30;42.40
32753;DHT22;19121;52.428;10.816;2022-07-29T08:11:25;24.30;43.00
32753;DHT22;19121;52.428;10.816;2022-07-29T08:13:51;24.30;42.30
32753;DHT22;19121;52.428;10.816;2022-07-29T08:16:17;24.30;42.30
32753;DHT22;19121;52.428;10.816;2022-07-29T08:18:43;24.40;42.30
32753;DHT22;19121;52.428;10.816;2022-07-29T08:21:09;24.40;42.30
32753;DHT22;19121;52.428;10.816;2022-07-29T08:23:34;24.40;42.20
32753;DHT22;19121;52.428;10.816;2022-07-29T08:26:05;24.40;42.20
32753;DHT22;19121;52.428;10.816;2022-07-29T08:28:30;24.50;42.20
32753;DHT22;19121;52.428;10.816;2022-07-29T08:30:56;24.50;42.20
32753;DHT22;19121;52.428;10.816;2022-07-29T08:33:21;24.50;42.20
32753;DHT22;19121;52.428;10.816;2022-07-29T08:35:47;24.50;42.20
32753;DHT22;19121;52.428;10.816;2022-07-29T08:38:12;24.60;42.20
32753;DHT22;19121;52.428;10.816;2022-07-29T08:40:38;24.60;42.20
32753;DHT22;19121;52.428;10.816;2022-07-29T08:43:08;24.60;42.20
32753;DHT22;19121;52.428;10.816;2022-07-29T08:45:50;24.60;42.10
32753;DHT22;19121;52.428;10.816;2022-07-29T08:48:20;24.60;42.20
32753;DHT22;19121;52.428;10.816;2022-07-29T08:50:47;24.60;42.20
32753;DHT22;19121;52.428;10.816;2022-07-29T08:53:15;24.60;42.10
32753;DHT22;19121;52.428;10.816;2022-07-29T08:55:43;24.60;42.10
32753;DHT22;19121;52.428;10.816;2022-07-29T08:58:09;24.70;42.20
32753;DHT22;19121;52.428;10.816;2022-07-29T09:00:37;24.70;42.20
32753;DHT22;19121;52.428;10.816;2022-07-29T09:03:06;24.70;42.30
32753;DHT22;19121;52.428;10.816;2022-07-29T09:05:33;24.80;42.30
32753;DHT22;19121;52.428;10.816;2022-07-29T09:07:59;24.80;42.30
32753;DHT22;19121;52.428;10.816;2022-07-29T09:10:25;24.80;42.40
32753;DHT22;19121;52.428;10.816;2022-07-29T09:12:51;24.80;42.50
32753;DHT22;19121;52.428;10.816;2022-07-29T09:15:17;24.80;42.50
32753;DHT22;19121;52.428;10.816;2022-07-29T09:17:45;24.80;42.50
32753;DHT22;19121;52.428;10.816;2022-07-29T09:20:16;24.80;42.50
32753;DHT22;19121;52.428;10.816;2022-07-29T09:22:41;24.80;42.70
32753;DHT22;19121;52.428;10.816;2022-07-29T09:25:07;24.90;42.70
32753;DHT22;19121;52.428;10.816;2022-07-29T09:27:33;24.90;42.70
32753;DHT22;19121;52.428;10.816;2022-07-29T09:30:06;24.90;42.70
32753;DHT22;19121;52.428;10.816;2022-07-29T09:32:33;25.00;42.90
32753;DHT22;19121;52.428;10.816;2022-07-29T09:35:24;25.00;43.00
32753;DHT22;19121;52.428;10.816;2022-07-29T09:37:50;25.00;43.10
32753;DHT22;19121;52.428;10.816;2022-07-29T09:40:21;24.90;43.10
32753;DHT22;19121;52.428;10.816;2022-07-29T09:42:47;24.90;43.20
32753;DHT22;19121;52.428;10.816;2022-07-29T09:45:26;25.00;43.20
32753;DHT22;19121;52.428;10.816;2022-07-29T09:47:52;25.00;43.20
32753;DHT22;19121;52.428;10.816;2022-07-29T09:50:17;25.10;43.30
32753;DHT22;19121;52.428;10.816;2022-07-29T09:52:50;25.00;43.30
32753;DHT22;19121;52.428;10.816;2022-07-29T09:55:16;25.00;43.40
32753;DHT22;19121;52.428;10.816;2022-07-29T09:57:42;25.10;43.60
32753;DHT22;19121;52.428;10.816;2022-07-29T10:00:10;25.10;43.50
32753;DHT22;19121;52.428;10.816;2022-07-29T10:02:38;25.10;43.70
32753;DHT22;19121;52.428;10.816;2022-07-29T10:05:06;25.10;43.70
32753;DHT22;19121;52.428;10.816;2022-07-29T10:07:53;25.10;43.70
32753;DHT22;19121;52.428;10.816;2022-07-29T10:12:57;25.00;43.80
32753;DHT22;19121;52.428;10.816;2022-07-29T10:15:24;25.00;43.90
32753;DHT22;19121;52.428;10.816;2022-07-29T10:17:54;25.10;44.00
32753;DHT22;19121;52.428;10.816;2022-07-29T10:20:21;25.00;43.70
32753;DHT22;19121;52.428;10.816;2022-07-29T10:22:48;25.00;44.10
32753;DHT22;19121;52.428;10.816;2022-07-29T10:25:15;25.00;44.00
32753;DHT22;19121;52.428;10.816;2022-07-29T10:27:42;25.00;44.20
32753;DHT22;19121;52.428;10.816;2022-07-29T10:30:08;25.00;44.20
32753;DHT22;19121;52.428;10.816;2022-07-29T10:32:49;24.90;44.20
32753;DHT22;19121;52.428;10.816;2022-07-29T10:41:13;25.10;44.10
32753;DHT22;19121;52.428;10.816;2022-07-29T10:46:28;25.20;44.00
32753;DHT22;19121;52.428;10.816;2022-07-29T10:49:25;25.20;43.90
32753;DHT22;19121;52.428;10.816;2022-07-29T10:51:59;25.20;43.80
32753;DHT22;19121;52.428;10.816;2022-07-29T10:57:28;25.30;43.70
32753;DHT22;19121;52.428;10.816;2022-07-29T11:02:41;25.30;43.50
32753;DHT22;19121;52.428;10.816;2022-07-29T11:05:20;25.40;43.20
32753;DHT22;19121;52.428;10.816;2022-07-29T11:08:16;25.40;41.70
32753;DHT22;19121;52.428;10.816;2022-07-29T11:10:43;25.40;40.60
32753;DHT22;19121;52.428;10.816;2022-07-29T11:13:09;25.30;40.50
32753;DHT22;19121;52.428;10.816;2022-07-29T11:15:57;25.30;41.20
32753;DHT22;19121;52.428;10.816;2022-07-29T11:18:23;25.30;41.20
32753;DHT22;19121;52.428;10.816;2022-07-29T11:20:50;25.30;41.00
32753;DHT22;19121;52.428;10.816;2022-07-29T11:23:30;25.40;40.70
32753;DHT22;19121;52.428;10.816;2022-07-29T11:39:32;25.40;40.30
32753;DHT22;19121;52.428;10.816;2022-07-29T11:47:24;25.50;40.20
32753;DHT22;19121;52.428;10.816;2022-07-29T11:49:51;25.50;40.20
32753;DHT22;19121;52.428;10.816;2022-07-29T11:52:18;25.50;39.70
32753;DHT22;19121;52.428;10.816;2022-07-29T11:54:44;25.60;40.00
32753;DHT22;19121;52.428;10.816;2022-07-29T11:57:11;25.60;40.10
32753;DHT22;19121;52.428;10.816;2022-07-29T11:59:42;25.60;40.10
32753;DHT22;19121;52.428;10.816;2022-07-29T12:02:08;25.60;40.10
32753;DHT22;19121;52.428;10.816;2022-07-29T12:04:51;25.60;40.50
32753;DHT22;19121;52.428;10.816;2022-07-29T12:07:17;25.60;40.60
32753;DHT22;19121;52.428;10.816;2022-07-29T12:09:52;25.60;40.50
32753;DHT22;19121;52.428;10.816;2022-07-29T12:12:19;25.60;40.10
32753;DHT22;19121;52.428;10.816;2022-07-29T12:14:44;25.60;40.10
32753;DHT22;19121;52.428;10.816;2022-07-29T12:17:29;25.60;40.20
32753;DHT22;19121;52.428;10.816;2022-07-29T12:20:00;25.60;40.00
32753;DHT22;19121;52.428;10.816;2022-07-29T12:22:28;25.70;40.30
32753;DHT22;19121;52.428;10.816;2022-07-29T12:24:54;25.70;40.00
32753;DHT22;19121;52.428;10.816;2022-07-29T12:27:20;25.70;39.40
32753;DHT22;19121;52.428;10.816;2022-07-29T12:30:04;25.70;39.70
32753;DHT22;19121;52.428;10.816;2022-07-29T12:32:38;25.70;39.80
32753;DHT22;19121;52.428;10.816;2022-07-29T12:35:10;25.70;39.80
32753;DHT22;19121;52.428;10.816;2022-07-29T12:37:37;25.80;40.10
32753;DHT22;19121;52.428;10.816;2022-07-29T12:40:04;25.70;40.00
32753;DHT22;19121;52.428;10.816;2022-07-29T12:42:30;25.80;39.70
32753;DHT22;19121;52.428;10.816;2022-07-29T12:44:56;25.80;39.80
32753;DHT22;19121;52.428;10.816;2022-07-29T12:47:22;25.80;39.70
32753;DHT22;19121;52.428;10.816;2022-07-29T12:49:48;25.80;39.90
32753;DHT22;19121;52.428;10.816;2022-07-29T12:52:32;25.80;39.60
32753;DHT22;19121;52.428;10.816;2022-07-29T12:54:58;25.80;39.60
32753;DHT22;19121;52.428;10.816;2022-07-29T12:57:24;25.80;39.80
32753;DHT22;19121;52.428;10.816;2022-07-29T13:00:00;25.80;40.00
32753;DHT22;19121;52.428;10.816;2022-07-29T13:02:26;25.80;40.20
32753;DHT22;19121;52.428;10.816;2022-07-29T13:04:59;25.80;40.20
32753;DHT22;19121;52.428;10.816;2022-07-29T13:07:35;25.80;40.20
32753;DHT22;19121;52.428;10.816;2022-07-29T13:10:18;25.80;40.20
32753;DHT22;19121;52.428;10.816;2022-07-29T13:13:13;25.80;40.40
32753;DHT22;19121;52.428;10.816;2022-07-29T13:15:41;25.80;40.50
32753;DHT22;19121;52.428;10.816;2022-07-29T13:18:32;25.90;40.50
32753;DHT22;19121;52.428;10.816;2022-07-29T13:21:14;25.90;40.50
32753;DHT22;19121;52.428;10.816;2022-07-29T13:23:40;25.90;40.40
32753;DHT22;19121;52.428;10.816;2022-07-29T13:26:07;25.90;40.50
32753;DHT22;19121;52.428;10.816;2022-07-29T13:28:33;25.90;40.60
32753;DHT22;19121;52.428;10.816;2022-07-29T13:30:59;25.90;40.40
32753;DHT22;19121;52.428;10.816;2022-07-29T13:33:25;25.90;40.70
32753;DHT22;19121;52.428;10.816;2022-07-29T13:35:50;25.90;40.50
32753;DHT22;19121;52.428;10.816;2022-07-29T13:38:15;25.90;40.40
32753;DHT22;19121;52.428;10.816;2022-07-29T13:40:41;25.90;40.50
32753;DHT22;19121;52.428;10.816;2022-07-29T13:43:09;25.90;40.70
32753;DHT22;19121;52.428;10.816;2022-07-29T13:45:35;26.00;40.80
32753;DHT22;19121;52.428;10.816;2022-07-29T13:48:01;26.00;40.60
32753;DHT22;19121;52.428;10.816;2022-07-29T13:50:26;26.00;40.70
32753;DHT22;19121;52.428;10.816;2022-07-29T13:52:52;26.00;40.60
32753;DHT22;19121;52.428;10.816;2022-07-29T13:55:18;26.00;40.30
32753;DHT22;19121;52.428;10.816;2022-07-29T13:57:43;26.00;40.40
32753;DHT22;19121;52.428;10.816;2022-07-29T14:00:09;26.00;40.50
32753;DHT22;19121;52.428;10.816;2022-07-29T14:02:35;26.00;40.40
32753;DHT22;19121;52.428;10.816;2022-07-29T14:05:02;26.00;40.40
32753;DHT22;19121;52.428;10.816;2022-07-29T14:07:28;26.00;40.50
32753;DHT22;19121;52.428;10.816;2022-07-29T14:09:53;26.00;40.50
32753;DHT22;19121;52.428;10.816;2022-07-29T14:12:19;26.00;40.60
32753;DHT22;19121;52.428;10.816;2022-07-29T14:14:44;26.10;40.70
32753;DHT22;19121;52.428;10.816;2022-07-29T14:17:10;26.00;40.60
32753;DHT22;19121;52.428;10.816;2022-07-29T14:19:35;26.10;41.20
32753;DHT22;19121;52.428;10.816;2022-07-29T14:22:04;26.10;40.60
32753;DHT22;19121;52.428;10.816;2022-07-29T14:24:30;26.10;40.50
32753;DHT22;19121;52.428;10.816;2022-07-29T14:26:56;26.10;40.50
32753;DHT22;19121;52.428;10.816;2022-07-29T14:29:22;26.10;40.40
32753;DHT22;19121;52.428;10.816;2022-07-29T14:31:47;26.10;40.50
32753;DHT22;19121;52.428;10.816;2022-07-29T14:34:12;26.10;40.40
32753;DHT22;19121;52.428;10.816;2022-07-29T14:36:38;26.10;40.40
32753;DHT22;19121;52.428;10.816;2022-07-29T14:39:03;26.10;40.40
32753;DHT22;19121;52.428;10.816;2022-07-29T14:41:29;26.10;40.70
32753;DHT22;19121;52.428;10.816;2022-07-29T14:43:54;26.10;40.70
32753;DHT22;19121;52.428;10.816;2022-07-29T14:46:20;26.10;40.70
32753;DHT22;19121;52.428;10.816;2022-07-29T14:48:45;26.10;40.70
32753;DHT22;19121;52.428;10.816;2022-07-29T14:51:11;26.20;40.80
32753;DHT22;19121;52.428;10.816;2022-07-29T14:53:36;26.10;40.70
32753;DHT22;19121;52.428;10.816;2022-07-29T14:56:02;26.10;40.70
32753;DHT22;19121;52.428;10.816;2022-07-29T14:58:28;26.20;40.80
32753;DHT22;19121;52.428;10.816;2022-07-29T15:00:53;26.10;40.70
32753;DHT22;19121;52.428;10.816;2022-07-29T15:03:20;26.10;40.80
32753;DHT22;19121;52.428;10.816;2022-07-29T15:05:45;26.10;40.70
32753;DHT22;19121;52.428;10.816;2022-07-29T15:08:11;26.20;40.80
32753;DHT22;19121;52.428;10.816;2022-07-29T15:10:37;26.20;40.80
32753;DHT22;19121;52.428;10.816;2022-07-29T15:13:02;26.20;40.90
32753;DHT22;19121;52.428;10.816;2022-07-29T15:15:28;26.20;40.90
32753;DHT22;19121;52.428;10.816;2022-07-29T15:17:53;26.20;40.90
32753;DHT22;19121;52.428;10.816;2022-07-29T15:20:19;26.20;41.00
32753;DHT22;19121;52.428;10.816;2022-07-29T15:22:45;26.20;40.90
32753;DHT22;19121;52.428;10.816;2022-07-29T15:25:10;26.20;40.90
32753;DHT22;19121;52.428;10.816;2022-07-29T15:27:36;26.20;41.00
32753;DHT22;19121;52.428;10.816;2022-07-29T15:30:01;26.20;40.90
32753;DHT22;19121;52.428;10.816;2022-07-29T15:32:27;26.10;40.80
32753;DHT22;19121;52.428;10.816;2022-07-29T15:34:52;26.10;40.90
32753;DHT22;19121;52.428;10.816;2022-07-29T15:37:18;26.20;41.00
32753;DHT22;19121;52.428;10.816;2022-07-29T15:39:43;26.20;41.00
32753;DHT22;19121;52.428;10.816;2022-07-29T15:42:09;26.20;41.00
32753;DHT22;19121;52.428;10.816;2022-07-29T15:44:34;26.20;40.90
32753;DHT22;19121;52.428;10.816;2022-07-29T15:47:00;26.20;40.90
32753;DHT22;19121;52.428;10.816;2022-07-29T15:49:29;26.20;41.00
32753;DHT22;19121;52.428;10.816;2022-07-29T15:51:58;26.20;41.10
32753;DHT22;19121;52.428;10.816;2022-07-29T15:54:24;26.20;41.00
32753;DHT22;19121;52.428;10.816;2022-07-29T15:56:49;26.20;41.00
32753;DHT22;19121;52.428;10.816;2022-07-29T15:59:15;26.20;41.00
32753;DHT22;19121;52.428;10.816;2022-07-29T16:01:40;26.20;41.00